Time;durP1;ratioP1;P1;durP2;ratioP2;P2;SDS_P1;SDS_P2;PMS_P1;PMS_P2;Temp;Humidity;BMP_temperature;BMP_pressure;BME280_temperature;BME280_humidity;BME280_pressure;Samples;Min_cycle;Max_cycle;Signal;HPM_P1;HPM_P2
2021/05/26 00:01:10;;;;;;;1.00;0.50;;;;;;;;;;5057273;28;20040;-59
2021/05/26 00:03:36;;;;;;;2.38;0.82;;;;;;;;;;5039503;28;20032;-59
2021/05/26 00:06:03;;;;;;;0.65;0.32;;;;;;;;;;5056114;28;20102;-59
2021/05/26 00:08:34;;;;;;;5.00;1.02;;;;;;;;;;5056602;28;20467;-59
2021/05/26 00:11:01;;;;;;;3.85;1.15;;;;;;;;;;5057209;28;20024;-59
2021/05/26 00:13:28;;;;;;;2.85;0.80;;;;;;;;;;5057185;28;20025;-59
2021/05/26 00:15:54;;;;;;;2.55;0.70;;;;;;;;;;5056851;28;20108;-59
2021/05/26 00:18:21;;;;;;;2.00;0.50;;;;;;;;;;5057055;28;20125;-59
2021/05/26 00:20:53;;;;;;;2.38;0.90;;;;;;;;;;5038304;28;20056;-59
2021/05/26 00:23:19;;;;;;;2.33;0.85;;;;;;;;;;5056500;28;20029;-59
2021/05/26 00:25:45;;;;;;;0.80;0.45;;;;;;;;;;5038028;28;20025;-59
2021/05/26 00:28:12;;;;;;;1.95;0.70;;;;;;;;;;5055787;28;20423;-59
2021/05/26 00:30:47;;;;;;;1.08;0.43;;;;;;;;;;5055970;28;20023;-59
2021/05/26 00:33:14;;;;;;;1.20;0.50;;;;;;;;;;5056033;28;20025;-59
2021/05/26 00:35:43;;;;;;;2.90;0.70;;;;;;;;;;5037737;28;20025;-59
2021/05/26 00:38:10;;;;;;;3.00;1.10;;;;;;;;;;5055616;28;20475;-59
2021/05/26 00:40:36;;;;;;;0.68;0.30;;;;;;;;;;5037917;28;20485;-59
2021/05/26 00:43:02;;;;;;;3.70;1.00;;;;;;;;;;5038234;28;20029;-59
2021/05/26 00:45:28;;;;;;;3.75;1.10;;;;;;;;;;5055990;28;20053;-59
2021/05/26 00:47:58;;;;;;;1.35;0.45;;;;;;;;;;5055827;28;20048;-59
2021/05/26 00:50:29;;;;;;;3.00;0.50;;;;;;;;;;5038483;28;20027;-59
2021/05/26 00:52:59;;;;;;;1.40;0.73;;;;;;;;;;5037881;28;20025;-59
2021/05/26 00:55:25;;;;;;;1.83;0.65;;;;;;;;;;5055607;28;20039;-59
2021/05/26 00:57:53;;;;;;;1.38;0.43;;;;;;;;;;5055887;28;20025;-59
2021/05/26 01:00:21;;;;;;;2.47;0.47;;;;;;;;;;5055500;28;20036;-59
2021/05/26 01:02:49;;;;;;;1.35;0.60;;;;;;;;;;5056023;28;20025;-59
2021/05/26 01:05:18;;;;;;;0.90;0.40;;;;;;;;;;5055912;28;20067;-59
2021/05/26 01:07:44;;;;;;;0.70;0.45;;;;;;;;;;5055632;28;20040;-59
2021/05/26 01:10:12;;;;;;;1.02;0.47;;;;;;;;;;5037376;28;20360;-59
2021/05/26 01:12:40;;;;;;;2.08;0.57;;;;;;;;;;5055402;28;20366;-59
2021/05/26 01:15:08;;;;;;;0.75;0.43;;;;;;;;;;5055210;28;20024;-59
2021/05/26 01:17:34;;;;;;;2.40;0.68;;;;;;;;;;5055028;28;20025;-58
2021/05/26 01:20:01;;;;;;;3.35;0.40;;;;;;;;;;5053780;28;20028;-58
2021/05/26 01:22:27;;;;;;;2.85;0.63;;;;;;;;;;5055203;28;20056;-58
2021/05/26 01:24:54;;;;;;;3.78;0.60;;;;;;;;;;5036850;28;20017;-59
2021/05/26 01:27:20;;;;;;;1.05;0.57;;;;;;;;;;5054868;28;20402;-59
2021/05/26 01:29:46;;;;;;;3.97;1.02;;;;;;;;;;5055144;28;20025;-59
2021/05/26 01:32:12;;;;;;;1.88;0.57;;;;;;;;;;5055529;28;20017;-58
2021/05/26 01:34:41;;;;;;;1.17;0.65;;;;;;;;;;5036968;28;20458;-58
2021/05/26 01:37:10;;;;;;;1.33;0.65;;;;;;;;;;5054770;28;20386;-58
2021/05/26 01:39:37;;;;;;;1.23;0.60;;;;;;;;;;5036754;28;20363;-59
2021/05/26 01:42:03;;;;;;;4.10;0.85;;;;;;;;;;5055345;28;20472;-58
2021/05/26 01:44:34;;;;;;;1.75;0.52;;;;;;;;;;5036333;28;20035;-58
2021/05/26 01:47:00;;;;;;;2.05;0.85;;;;;;;;;;5054628;28;20479;-58
2021/05/26 01:49:27;;;;;;;1.67;0.82;;;;;;;;;;5054601;28;20028;-58
2021/05/26 01:51:53;;;;;;;3.22;1.27;;;;;;;;;;5054568;28;20021;-58
2021/05/26 01:54:22;;;;;;;1.77;0.40;;;;;;;;;;5054749;28;20029;-58
2021/05/26 01:56:56;;;;;;;1.80;0.55;;;;;;;;;;5054862;28;20090;-57
2021/05/26 01:59:27;;;;;;;0.95;0.35;;;;;;;;;;5054797;28;20032;-58
2021/05/26 02:01:54;;;;;;;1.80;0.90;;;;;;;;;;5037118;28;20047;-57
2021/05/26 02:04:20;;;;;;;1.13;0.50;;;;;;;;;;5053974;28;20021;-58
2021/05/26 02:06:51;;;;;;;1.98;0.82;;;;;;;;;;5054733;28;20028;-58
2021/05/26 02:09:19;;;;;;;3.80;1.10;;;;;;;;;;5036363;28;20440;-58
2021/05/26 02:14:37;;;;;;;1.88;0.30;;;;;;;;;;5023472;28;20043;-58
2021/05/26 02:17:03;;;;;;;2.92;0.98;;;;;;;;;;5053283;28;20556;-58
2021/05/26 02:19:30;;;;;;;3.00;0.68;;;;;;;;;;5054025;28;20025;-58
2021/05/26 02:21:56;;;;;;;2.92;1.08;;;;;;;;;;5054276;28;20024;-58
2021/05/26 02:24:22;;;;;;;2.28;1.00;;;;;;;;;;5053878;28;20325;-58
2021/05/26 02:26:48;;;;;;;2.25;0.65;;;;;;;;;;5053726;28;20044;-58
2021/05/26 02:29:18;;;;;;;1.05;0.57;;;;;;;;;;5054668;28;20025;-58
2021/05/26 02:31:44;;;;;;;1.35;0.60;;;;;;;;;;5053532;28;20108;-59
2021/05/26 02:34:10;;;;;;;2.58;0.90;;;;;;;;;;5054895;28;20025;-57
2021/05/26 02:36:38;;;;;;;1.95;0.73;;;;;;;;;;5053703;28;20033;-58
2021/05/26 02:39:05;;;;;;;1.40;0.50;;;;;;;;;;5053712;28;20029;-58
2021/05/26 02:41:31;;;;;;;2.42;0.98;;;;;;;;;;5054081;28;20029;-58
2021/05/26 02:43:57;;;;;;;2.83;0.73;;;;;;;;;;5035713;28;20116;-58
2021/05/26 02:46:27;;;;;;;2.95;0.70;;;;;;;;;;5053815;28;20360;-58
2021/05/26 02:49:02;;;;;;;1.10;0.20;;;;;;;;;;5053393;28;20029;-58
2021/05/26 02:51:28;;;;;;;2.55;0.65;;;;;;;;;;5053562;28;20036;-58
2021/05/26 02:53:54;;;;;;;2.70;0.77;;;;;;;;;;5035789;28;20021;-58
2021/05/26 02:56:23;;;;;;;1.83;0.95;;;;;;;;;;5053838;28;20029;-58
2021/05/26 02:58:49;;;;;;;5.22;0.90;;;;;;;;;;5053461;28;20029;-58
2021/05/26 03:01:18;;;;;;;2.80;1.15;;;;;;;;;;5053806;28;20462;-58
2021/05/26 03:03:44;;;;;;;1.98;0.88;;;;;;;;;;5051205;28;20039;-58
2021/05/26 03:06:10;;;;;;;3.80;1.00;;;;;;;;;;5052927;28;20029;-58
2021/05/26 03:08:39;;;;;;;0.95;0.50;;;;;;;;;;5053285;28;20036;-58
2021/05/26 03:11:08;;;;;;;1.85;0.52;;;;;;;;;;5054216;28;20032;-58
2021/05/26 03:13:34;;;;;;;2.78;0.77;;;;;;;;;;5053012;28;20025;-58
2021/05/26 03:16:02;;;;;;;2.28;0.80;;;;;;;;;;5052884;28;20021;-58
2021/05/26 03:18:29;;;;;;;2.75;1.13;;;;;;;;;;5053282;28;20037;-58
2021/05/26 03:21:03;;;;;;;2.42;1.13;;;;;;;;;;5053014;28;20029;-58
2021/05/26 03:23:29;;;;;;;2.30;0.60;;;;;;;;;;5053042;28;20306;-58
2021/05/26 03:25:55;;;;;;;1.10;0.43;;;;;;;;;;5053734;28;20028;-58
2021/05/26 03:28:22;;;;;;;2.40;1.00;;;;;;;;;;5035040;28;20104;-58
2021/05/26 03:30:51;;;;;;;3.53;1.25;;;;;;;;;;5053248;28;20458;-58
2021/05/26 03:33:23;;;;;;;5.07;0.77;;;;;;;;;;5035178;28;20398;-58
2021/05/26 03:35:49;;;;;;;1.65;0.65;;;;;;;;;;5052896;28;20036;-58
2021/05/26 03:38:15;;;;;;;1.25;0.65;;;;;;;;;;5053085;28;20059;-58
2021/05/26 03:40:44;;;;;;;5.15;1.38;;;;;;;;;;5053974;28;20124;-57
2021/05/26 03:43:13;;;;;;;1.35;0.60;;;;;;;;;;5052381;28;20362;-58
2021/05/26 03:45:40;;;;;;;4.65;1.55;;;;;;;;;;5052995;28;20124;-58
2021/05/26 03:48:09;;;;;;;1.80;0.77;;;;;;;;;;5053412;28;20539;-59
2021/05/26 03:50:39;;;;;;;5.60;0.70;;;;;;;;;;5034972;28;20071;-58
2021/05/26 03:53:07;;;;;;;1.95;0.43;;;;;;;;;;5053424;28;20021;-58
2021/05/26 03:55:33;;;;;;;3.38;1.17;;;;;;;;;;5034985;28;20025;-58
2021/05/26 03:58:05;;;;;;;4.40;0.85;;;;;;;;;;5053353;28;20063;-58
2021/05/26 04:00:31;;;;;;;2.45;0.82;;;;;;;;;;5053562;28;20021;-58
2021/05/26 04:02:57;;;;;;;4.03;0.57;;;;;;;;;;5056737;28;20036;-58
2021/05/26 04:05:29;;;;;;;2.63;0.80;;;;;;;;;;5039325;28;20475;-58
2021/05/26 04:08:01;;;;;;;2.58;0.75;;;;;;;;;;5055539;28;20033;-58
2021/05/26 04:10:29;;;;;;;5.28;0.98;;;;;;;;;;5057295;28;20029;-59
2021/05/26 04:13:01;;;;;;;3.88;0.88;;;;;;;;;;5039157;28;20040;-58
2021/05/26 04:15:27;;;;;;;1.85;0.77;;;;;;;;;;5038316;28;20088;-58
2021/05/26 04:18:03;;;;;;;1.80;0.98;;;;;;;;;;5038230;28;20478;-58
2021/05/26 04:20:33;;;;;;;3.10;0.82;;;;;;;;;;5038465;28;20038;-59
2021/05/26 04:22:59;;;;;;;4.35;1.05;;;;;;;;;;5056484;28;20033;-58
2021/05/26 04:25:26;;;;;;;0.68;0.38;;;;;;;;;;5038161;28;20506;-59
2021/05/26 04:27:52;;;;;;;3.38;0.98;;;;;;;;;;5056024;28;20112;-59
2021/05/26 04:30:18;;;;;;;1.00;0.55;;;;;;;;;;5038180;28;20035;-58
2021/05/26 04:32:44;;;;;;;3.05;0.85;;;;;;;;;;5056612;28;20013;-58
2021/05/26 04:35:11;;;;;;;3.10;1.27;;;;;;;;;;5037773;28;20035;-58
2021/05/26 04:37:40;;;;;;;1.55;0.85;;;;;;;;;;5056278;28;20061;-58
2021/05/26 04:40:06;;;;;;;4.35;1.35;;;;;;;;;;5055957;28;20029;-58
2021/05/26 04:42:38;;;;;;;2.92;1.33;;;;;;;;;;5056119;28;20095;-58
2021/05/26 04:45:04;;;;;;;3.78;1.08;;;;;;;;;;5056173;28;20368;-57
2021/05/26 04:47:33;;;;;;;3.58;1.02;;;;;;;;;;5055776;28;20029;-58
2021/05/26 04:50:01;;;;;;;2.20;1.02;;;;;;;;;;5055631;28;20036;-58
2021/05/26 04:52:33;;;;;;;2.35;0.80;;;;;;;;;;5056372;28;20028;-58
2021/05/26 04:55:01;;;;;;;1.73;0.88;;;;;;;;;;5054984;28;20043;-57
2021/05/26 04:57:30;;;;;;;2.53;1.00;;;;;;;;;;5056078;28;20348;-58
2021/05/26 04:59:57;;;;;;;3.55;1.15;;;;;;;;;;5055583;28;20364;-57
2021/05/26 05:02:26;;;;;;;2.95;1.38;;;;;;;;;;5055920;28;20108;-58
2021/05/26 05:04:52;;;;;;;2.63;1.10;;;;;;;;;;5055230;28;20021;-58
2021/05/26 05:07:18;;;;;;;1.65;0.88;;;;;;;;;;5054010;28;20387;-57
2021/05/26 05:09:45;;;;;;;1.83;0.88;;;;;;;;;;5055358;28;20028;-58
2021/05/26 05:12:27;;;;;;;4.30;1.08;;;;;;;;;;5055365;28;20017;-57
2021/05/26 05:14:58;;;;;;;5.65;1.35;;;;;;;;;;5037890;28;20473;-57
2021/05/26 05:17:27;;;;;;;3.92;0.98;;;;;;;;;;5070335;28;20456;-57
2021/05/26 05:19:55;;;;;;;3.72;1.55;;;;;;;;;;5055038;28;20025;-58
2021/05/26 05:22:21;;;;;;;7.55;1.45;;;;;;;;;;5070636;28;20055;-58
2021/05/26 05:24:48;;;;;;;1.75;0.85;;;;;;;;;;5037154;28;20119;-58
2021/05/26 05:27:14;;;;;;;1.60;0.77;;;;;;;;;;5054951;28;20037;-58
2021/05/26 05:29:52;;;;;;;2.33;0.70;;;;;;;;;;5055065;28;20020;-58
2021/05/26 05:32:22;;;;;;;1.88;0.90;;;;;;;;;;5071010;28;20056;-58
2021/05/26 05:34:51;;;;;;;1.08;0.60;;;;;;;;;;5055256;28;20041;-57
2021/05/26 05:37:20;;;;;;;6.10;1.65;;;;;;;;;;5036784;28;20033;-58
2021/05/26 05:39:48;;;;;;;2.75;0.95;;;;;;;;;;5037077;28;20438;-57
2021/05/26 05:42:24;;;;;;;2.15;0.98;;;;;;;;;;5070091;28;20033;-58
2021/05/26 05:44:50;;;;;;;2.63;0.85;;;;;;;;;;5036775;28;20116;-57
2021/05/26 05:47:19;;;;;;;1.58;0.75;;;;;;;;;;5053790;28;20103;-57
2021/05/26 05:49:57;;;;;;;2.22;0.95;;;;;;;;;;5054881;28;20036;-58
2021/05/26 05:52:26;;;;;;;4.13;1.20;;;;;;;;;;5036248;28;20444;-58
2021/05/26 05:54:53;;;;;;;4.43;1.00;;;;;;;;;;5069595;28;20511;-58
2021/05/26 05:57:22;;;;;;;1.73;0.80;;;;;;;;;;5054437;28;20036;-56
2021/05/26 05:59:57;;;;;;;1.33;0.68;;;;;;;;;;5054469;28;20035;-58
2021/05/26 06:02:26;;;;;;;4.90;1.13;;;;;;;;;;5054072;28;20028;-57
2021/05/26 06:04:55;;;;;;;6.03;1.13;;;;;;;;;;5034011;28;20510;-57
2021/05/26 06:07:21;;;;;;;1.42;0.68;;;;;;;;;;5053877;28;20029;-58
2021/05/26 06:09:47;;;;;;;2.20;0.95;;;;;;;;;;5054125;28;20147;-58
2021/05/26 06:12:29;;;;;;;3.47;1.58;;;;;;;;;;5053616;28;20029;-58
2021/05/26 06:14:58;;;;;;;6.35;1.15;;;;;;;;;;5052671;28;20045;-58
2021/05/26 06:17:24;;;;;;;3.78;1.25;;;;;;;;;;5036568;28;20025;-58
2021/05/26 06:19:51;;;;;;;3.40;1.17;;;;;;;;;;5053992;28;20017;-58
2021/05/26 06:22:25;;;;;;;6.18;1.33;;;;;;;;;;5035949;28;20039;-58
2021/05/26 06:24:54;;;;;;;2.50;1.33;;;;;;;;;;5054479;28;20390;-58
2021/05/26 06:27:31;;;;;;;2.70;1.20;;;;;;;;;;5035600;28;20135;-58
2021/05/26 06:30:00;;;;;;;4.55;1.42;;;;;;;;;;5035811;28;20471;-58
2021/05/26 06:32:29;;;;;;;2.10;0.93;;;;;;;;;;5036428;28;20036;-58
2021/05/26 06:34:56;;;;;;;2.67;1.10;;;;;;;;;;5036055;28;20107;-59
2021/05/26 06:37:22;;;;;;;1.90;0.80;;;;;;;;;;5053779;28;20082;-59
2021/05/26 06:39:51;;;;;;;2.15;1.17;;;;;;;;;;5053632;28;20033;-58
2021/05/26 06:42:18;;;;;;;4.93;1.30;;;;;;;;;;5035912;28;20037;-58
2021/05/26 06:44:44;;;;;;;5.28;1.33;;;;;;;;;;5054215;28;20021;-58
2021/05/26 06:47:20;;;;;;;3.33;1.27;;;;;;;;;;5035270;28;20049;-59
2021/05/26 06:49:46;;;;;;;2.90;1.10;;;;;;;;;;5054303;28;20036;-59
2021/05/26 06:52:14;;;;;;;1.92;1.00;;;;;;;;;;5053728;28;20164;-59
2021/05/26 06:54:40;;;;;;;2.10;1.35;;;;;;;;;;5053271;28;20025;-59
2021/05/26 06:57:12;;;;;;;4.28;1.63;;;;;;;;;;5035742;28;20049;-59
2021/05/26 06:59:38;;;;;;;4.15;1.17;;;;;;;;;;5053345;28;20032;-59
2021/05/26 07:02:04;;;;;;;4.28;1.35;;;;;;;;;;5035927;28;20025;-59
2021/05/26 07:04:34;;;;;;;4.57;1.80;;;;;;;;;;5053424;28;20071;-58
2021/05/26 07:07:00;;;;;;;5.30;1.25;;;;;;;;;;5053000;28;20033;-59
2021/05/26 07:09:29;;;;;;;4.78;1.30;;;;;;;;;;5051703;28;20091;-59
2021/05/26 07:11:58;;;;;;;3.28;1.38;;;;;;;;;;5053589;28;20023;-59
2021/05/26 07:14:35;;;;;;;6.95;1.50;;;;;;;;;;5053638;28;20413;-58
2021/05/26 07:17:01;;;;;;;2.63;1.23;;;;;;;;;;5035876;28;20025;-59
2021/05/26 07:19:37;;;;;;;3.45;1.00;;;;;;;;;;5053129;28;20025;-59
2021/05/26 07:22:03;;;;;;;5.20;1.75;;;;;;;;;;5052987;28;20041;-59
2021/05/26 07:24:30;;;;;;;2.50;0.93;;;;;;;;;;5035527;28;20097;-59
2021/05/26 07:26:59;;;;;;;1.90;0.88;;;;;;;;;;5035285;28;20071;-59
2021/05/26 07:29:28;;;;;;;3.30;1.23;;;;;;;;;;5034751;28;20041;-59
2021/05/26 07:32:01;;;;;;;6.57;1.52;;;;;;;;;;5035120;28;20086;-59
2021/05/26 07:34:33;;;;;;;3.83;1.63;;;;;;;;;;5035970;28;20362;-59
2021/05/26 07:37:03;;;;;;;1.55;1.13;;;;;;;;;;5055313;28;20111;-58
2021/05/26 07:39:34;;;;;;;3.50;1.45;;;;;;;;;;5038979;28;20382;-58
2021/05/26 07:42:01;;;;;;;3.08;1.52;;;;;;;;;;5054671;28;20132;-59
2021/05/26 07:44:27;;;;;;;3.60;1.40;;;;;;;;;;5056927;28;20029;-59
2021/05/26 07:46:56;;;;;;;1.50;1.30;;;;;;;;;;5022049;28;20049;-58
2021/05/26 07:49:28;;;;;;;5.68;2.17;;;;;;;;;;5032006;28;20412;-58
2021/05/26 07:52:02;;;;;;;2.15;1.00;;;;;;;;;;4999225;28;20404;-58
2021/05/26 07:54:28;;;;;;;4.88;1.80;;;;;;;;;;4999667;28;20472;-58
2021/05/26 07:57:05;;;;;;;5.13;1.88;;;;;;;;;;4999491;28;20099;-58
2021/05/26 07:59:34;;;;;;;2.28;1.20;;;;;;;;;;5014936;28;20077;-58
2021/05/26 08:02:00;;;;;;;4.05;1.38;;;;;;;;;;4998968;28;20037;-57
2021/05/26 08:04:26;;;;;;;7.32;1.40;;;;;;;;;;5015074;28;20060;-58
2021/05/26 08:06:55;;;;;;;4.72;1.63;;;;;;;;;;4999121;28;20045;-58
2021/05/26 08:09:21;;;;;;;6.20;2.05;;;;;;;;;;5015824;28;20037;-58
2021/05/26 08:11:50;;;;;;;3.63;2.33;;;;;;;;;;5017180;28;20034;-59
2021/05/26 08:14:16;;;;;;;4.78;1.60;;;;;;;;;;4999124;28;20482;-57
2021/05/26 08:16:45;;;;;;;6.05;1.83;;;;;;;;;;4999144;28;20030;-57
2021/05/26 08:19:22;;;;;;;6.75;1.60;;;;;;;;;;5016847;28;20033;-58
2021/05/26 08:21:48;;;;;;;5.57;1.92;;;;;;;;;;5017016;28;20038;-58
2021/05/26 08:24:15;;;;;;;6.38;1.67;;;;;;;;;;5031252;28;20026;-59
2021/05/26 08:26:42;;;;;;;3.22;1.80;;;;;;;;;;5015833;28;20362;-58
2021/05/26 08:29:08;;;;;;;4.80;1.30;;;;;;;;;;5016035;28;20026;-57
2021/05/26 08:31:34;;;;;;;5.88;2.25;;;;;;;;;;5016184;28;20460;-58
2021/05/26 08:34:03;;;;;;;3.45;1.27;;;;;;;;;;5016084;28;20030;-59
2021/05/26 08:36:29;;;;;;;6.75;1.70;;;;;;;;;;5016348;28;20034;-58
2021/05/26 08:38:58;;;;;;;3.35;1.73;;;;;;;;;;4998915;28;20467;-58
2021/05/26 08:41:24;;;;;;;6.95;1.20;;;;;;;;;;4999392;28;20160;-58
2021/05/26 08:44:03;;;;;;;3.65;1.67;;;;;;;;;;4998149;28;20043;-58
2021/05/26 08:46:29;;;;;;;3.30;1.17;;;;;;;;;;5004995;28;20566;-58
2021/05/26 08:49:01;;;;;;;3.58;2.08;;;;;;;;;;5016386;28;20029;-59
2021/05/26 08:51:33;;;;;;;3.97;1.48;;;;;;;;;;5036058;28;20448;-58
2021/05/26 08:54:02;;;;;;;2.65;1.27;;;;;;;;;;5017954;28;20379;-56
2021/05/26 08:56:28;;;;;;;5.20;1.65;;;;;;;;;;5033621;28;20029;-59
2021/05/26 08:59:04;;;;;;;5.18;1.67;;;;;;;;;;5017351;28;20030;-59
2021/05/26 09:01:30;;;;;;;1.77;0.90;;;;;;;;;;5036514;28;20030;-57
2021/05/26 09:03:57;;;;;;;4.53;1.58;;;;;;;;;;5018749;28;20060;-59
2021/05/26 09:06:42;;;;;;;9.70;1.63;;;;;;;;;;5017714;28;20073;-59
2021/05/26 09:09:09;;;;;;;2.28;1.33;;;;;;;;;;5017442;28;20033;-59
2021/05/26 09:11:43;;;;;;;3.42;1.58;;;;;;;;;;5036084;28;20079;-57
2021/05/26 09:14:13;;;;;;;3.92;1.40;;;;;;;;;;5035326;28;20052;-56
2021/05/26 09:16:42;;;;;;;4.88;1.98;;;;;;;;;;5050156;28;20041;-57
2021/05/26 09:19:09;;;;;;;5.38;1.58;;;;;;;;;;5035268;28;20041;-59
2021/05/26 09:21:35;;;;;;;2.00;0.93;;;;;;;;;;5017230;28;20029;-59
2021/05/26 09:24:02;;;;;;;4.60;1.65;;;;;;;;;;5035265;28;20032;-58
2021/05/26 09:26:49;;;;;;;6.30;1.33;;;;;;;;;;5034816;28;20062;-58
2021/05/26 09:29:16;;;;;;;4.85;1.83;;;;;;;;;;5035928;28;20025;-58
2021/05/26 09:31:42;;;;;;;4.07;1.40;;;;;;;;;;5017938;28;20026;-59
2021/05/26 09:34:17;;;;;;;3.67;1.73;;;;;;;;;;5033557;28;20502;-58
2021/05/26 09:37:06;;;;;;;7.03;1.45;;;;;;;;;;5034722;28;20030;-59
2021/05/26 09:39:52;;;;;;;6.00;1.95;;;;;;;;;;5016852;28;20025;-59
2021/05/26 09:42:28;;;;;;;3.20;1.67;;;;;;;;;;5035489;28;20353;-59
2021/05/26 09:45:14;;;;;;;2.78;1.20;;;;;;;;;;5016423;28;20032;-59
2021/05/26 09:47:51;;;;;;;4.45;1.67;;;;;;;;;;4997023;28;20572;-59
2021/05/26 09:50:31;;;;;;;4.47;1.30;;;;;;;;;;5015454;28;20037;-59
2021/05/26 09:52:59;;;;;;;3.47;1.38;;;;;;;;;;5031043;28;20409;-59
2021/05/26 09:55:29;;;;;;;4.13;1.60;;;;;;;;;;5014925;28;20376;-56
2021/05/26 09:57:56;;;;;;;;;;;;;;;;;;5015331;28;20037;-55
2021/05/26 10:00:24;;;;;;;2.67;1.23;;;;;;;;;;4997016;28;20302;-57
2021/05/26 10:02:51;;;;;;;2.70;1.17;;;;;;;;;;5030041;28;20030;-57
2021/05/26 10:05:24;;;;;;;1.70;0.73;;;;;;;;;;5029668;28;20060;-57
2021/05/26 10:08:12;;;;;;;2.88;1.08;;;;;;;;;;5030687;28;20088;-57
2021/05/26 10:10:42;;;;;;;1.85;1.10;;;;;;;;;;5027686;28;20421;-57
2021/05/26 10:13:14;;;;;;;1.90;1.00;;;;;;;;;;5015215;28;20364;-57
2021/05/26 10:15:51;;;;;;;4.63;1.10;;;;;;;;;;5013296;28;20452;-57
2021/05/26 10:18:20;;;;;;;2.00;0.60;;;;;;;;;;5029201;28;20021;-57
2021/05/26 10:20:51;;;;;;;1.35;0.65;;;;;;;;;;5029429;28;20413;-59
2021/05/26 10:23:19;;;;;;;2.42;0.60;;;;;;;;;;5014131;28;20025;-59
2021/05/26 10:25:47;;;;;;;2.00;1.08;;;;;;;;;;5029978;28;20026;-59
2021/05/26 10:28:26;;;;;;;1.90;0.80;;;;;;;;;;5029080;28;20033;-59
2021/05/26 10:30:59;;;;;;;1.00;0.40;;;;;;;;;;5029061;28;20092;-58
2021/05/26 10:33:49;;;;;;;0.47;0.22;;;;;;;;;;5013820;28;20038;-59
2021/05/26 10:36:18;;;;;;;1.25;0.50;;;;;;;;;;5010835;28;20503;-58
2021/05/26 10:39:05;;;;;;;2.78;0.93;;;;;;;;;;5028836;28;20061;-59
2021/05/26 10:41:52;;;;;;;3.42;0.77;;;;;;;;;;4996224;28;20026;-55
2021/05/26 10:44:19;;;;;;;1.38;0.50;;;;;;;;;;4996267;28;20033;-56
2021/05/26 10:46:48;;;;;;;4.03;0.95;;;;;;;;;;5048028;28;20049;-56
2021/05/26 10:49:17;;;;;;;2.10;0.50;;;;;;;;;;5035271;28;20383;-57
2021/05/26 10:52:01;;;;;;;1.40;0.73;;;;;;;;;;5053714;28;20086;-56
2021/05/26 10:54:40;;;;;;;1.38;0.60;;;;;;;;;;5035851;28;20037;-59
2021/05/26 10:57:07;;;;;;;2.67;0.70;;;;;;;;;;5053531;28;20055;-56
2021/05/26 10:59:39;;;;;;;1.92;0.60;;;;;;;;;;5036552;28;20363;-57
2021/05/26 11:02:12;;;;;;;1.83;0.40;;;;;;;;;;5069431;28;20070;-57
2021/05/26 11:04:39;;;;;;;3.17;1.40;;;;;;;;;;5054042;28;20056;-57
2021/05/26 11:07:29;;;;;;;5.18;0.80;;;;;;;;;;5053400;28;20033;-57
2021/05/26 11:10:08;;;;;;;1.13;0.40;;;;;;;;;;5035597;28;20025;-57
2021/05/26 11:12:57;;;;;;;5.05;0.90;;;;;;;;;;5057418;28;20025;-57
2021/05/26 11:15:46;;;;;;;4.03;0.85;;;;;;;;;;5048490;28;20041;-57
2021/05/26 11:20:57;;;;;;;2.78;0.73;;;;;;;;;;5057543;28;20033;-56
2021/05/26 11:23:25;;;;;;;1.70;0.60;;;;;;;;;;5057426;28;20025;-60
2021/05/26 11:25:57;;;;;;;4.88;1.35;;;;;;;;;;5057370;28;20029;-56
2021/05/26 11:28:27;;;;;;;2.25;0.88;;;;;;;;;;5057294;28;20064;-57
2021/05/26 11:31:03;;;;;;;1.08;0.52;;;;;;;;;;5039902;28;20051;-56
2021/05/26 11:33:29;;;;;;;2.58;1.00;;;;;;;;;;5056499;28;20098;-56
2021/05/26 11:36:09;;;;;;;2.05;0.68;;;;;;;;;;5057150;28;20017;-59
2021/05/26 11:38:37;;;;;;;2.87;0.90;;;;;;;;;;5038973;28;20032;-59
2021/05/26 11:41:16;;;;;;;3.72;0.90;;;;;;;;;;5057096;28;20659;-59
2021/05/26 11:43:43;;;;;;;1.23;0.50;;;;;;;;;;5039764;28;20025;-59
2021/05/26 11:46:10;;;;;;;2.33;1.13;;;;;;;;;;5035993;28;20144;-59
2021/05/26 11:48:37;;;;;;;1.73;0.90;;;;;;;;;;5035492;28;20033;-59
2021/05/26 11:51:03;;;;;;;1.35;0.45;;;;;;;;;;5037793;28;20364;-59
2021/05/26 11:53:35;;;;;;;1.70;0.50;;;;;;;;;;5036983;28;20041;-59
2021/05/26 11:56:02;;;;;;;1.20;0.68;;;;;;;;;;5036818;28;20129;-59
2021/05/26 11:58:35;;;;;;;0.82;0.45;;;;;;;;;;5036777;28;20021;-59
2021/05/26 12:01:13;;;;;;;1.92;0.60;;;;;;;;;;5036018;28;20051;-59
2021/05/26 12:03:39;;;;;;;2.00;0.90;;;;;;;;;;5036462;28;20026;-59
2021/05/26 12:06:05;;;;;;;1.15;0.65;;;;;;;;;;5037031;28;20333;-59
2021/05/26 12:08:38;;;;;;;2.95;0.90;;;;;;;;;;5036425;28;20387;-59
2021/05/26 12:11:10;;;;;;;1.75;0.63;;;;;;;;;;5037496;28;20026;-58
2021/05/26 12:13:40;;;;;;;5.38;1.33;;;;;;;;;;5035114;28;20112;-59
2021/05/26 12:16:07;;;;;;;1.98;0.63;;;;;;;;;;5036663;28;20038;-59
2021/05/26 12:18:34;;;;;;;3.40;1.05;;;;;;;;;;5036777;28;20041;-59
2021/05/26 12:21:08;;;;;;;2.63;0.88;;;;;;;;;;5034797;28;20025;-59
2021/05/26 12:23:37;;;;;;;1.38;0.75;;;;;;;;;;5034449;28;20029;-59
2021/05/26 12:26:20;;;;;;;1.13;0.63;;;;;;;;;;5035082;28;20108;-59
2021/05/26 12:28:49;;;;;;;1.20;0.47;;;;;;;;;;5036324;28;20038;-58
2021/05/26 12:31:16;;;;;;;1.40;0.60;;;;;;;;;;5036331;28;20384;-59
2021/05/26 12:33:46;;;;;;;3.10;0.47;;;;;;;;;;5035514;28;20021;-58
2021/05/26 12:36:13;;;;;;;1.67;0.93;;;;;;;;;;5036260;28;20080;-58
2021/05/26 12:38:46;;;;;;;2.20;0.88;;;;;;;;;;5067909;28;20032;-59
2021/05/26 12:41:33;;;;;;;1.20;0.57;;;;;;;;;;5035230;28;20444;-58
2021/05/26 12:44:03;;;;;;;1.20;0.47;;;;;;;;;;5035540;28;20033;-59
2021/05/26 12:46:43;;;;;;;1.10;0.60;;;;;;;;;;5033987;28;20140;-59
2021/05/26 12:49:47;;;;;;;0.98;0.57;;;;;;;;;;5034606;28;20029;-59
2021/05/26 12:52:30;;;;;;;1.35;0.50;;;;;;;;;;5035821;28;20056;-59
2021/05/26 12:55:05;;;;;;;1.83;0.73;;;;;;;;;;5034605;28;20021;-58
2021/05/26 12:57:34;;;;;;;1.30;0.60;;;;;;;;;;5034067;28;20029;-58
2021/05/26 13:00:10;;;;;;;1.75;0.47;;;;;;;;;;5034414;28;20017;-59
2021/05/26 13:02:38;;;;;;;0.82;0.35;;;;;;;;;;5036081;28;20025;-59
2021/05/26 13:05:05;;;;;;;1.23;0.43;;;;;;;;;;5035000;28;20040;-59
2021/05/26 13:07:40;;;;;;;1.23;0.40;;;;;;;;;;5035111;28;20522;-58
2021/05/26 13:10:26;;;;;;;1.02;0.30;;;;;;;;;;5034362;28;20386;-59
2021/05/26 13:12:55;;;;;;;0.63;0.30;;;;;;;;;;5034555;28;20033;-59
2021/05/26 13:15:22;;;;;;;1.13;0.47;;;;;;;;;;5034213;28;20022;-59
2021/05/26 13:17:48;;;;;;;1.20;0.47;;;;;;;;;;5050675;28;20033;-59
2021/05/26 13:20:35;;;;;;;3.60;0.63;;;;;;;;;;5035077;28;20026;-59
2021/05/26 13:23:02;;;;;;;4.85;1.02;;;;;;;;;;5034926;28;20068;-59
2021/05/26 13:25:32;;;;;;;3.13;0.95;;;;;;;;;;5035267;28;20025;-58
2021/05/26 13:27:58;;;;;;;1.65;0.60;;;;;;;;;;5035614;28;20390;-58
2021/05/26 13:30:31;;;;;;;5.05;0.55;;;;;;;;;;5067548;28;20030;-59
2021/05/26 13:32:57;;;;;;;2.45;0.73;;;;;;;;;;5035248;28;20029;-59
2021/05/26 13:35:24;;;;;;;0.95;0.47;;;;;;;;;;5049462;28;20033;-59
2021/05/26 13:37:50;;;;;;;5.10;0.93;;;;;;;;;;5033750;28;20452;-59
2021/05/26 13:40:16;;;;;;;0.98;0.50;;;;;;;;;;5033368;28;20029;-59
2021/05/26 13:42:47;;;;;;;3.58;1.00;;;;;;;;;;5049832;28;20543;-59
2021/05/26 13:45:13;;;;;;;1.27;0.57;;;;;;;;;;5034217;28;20427;-58
2021/05/26 13:47:40;;;;;;;1.35;0.55;;;;;;;;;;5066665;28;20111;-59
2021/05/26 13:50:07;;;;;;;2.67;0.50;;;;;;;;;;5034590;28;20036;-59
2021/05/26 13:52:33;;;;;;;1.33;0.57;;;;;;;;;;5033825;28;20463;-59
2021/05/26 13:55:02;;;;;;;1.48;0.82;;;;;;;;;;5035275;28;20026;-59
2021/05/26 13:57:29;;;;;;;2.30;0.82;;;;;;;;;;5049814;28;20025;-59
2021/05/26 14:00:00;;;;;;;2.55;0.73;;;;;;;;;;5035074;28;20026;-59
2021/05/26 14:02:34;;;;;;;1.80;0.57;;;;;;;;;;5035241;28;20034;-59
2021/05/26 14:05:00;;;;;;;1.95;1.00;;;;;;;;;;5034563;28;20411;-59
2021/05/26 14:07:26;;;;;;;1.35;0.63;;;;;;;;;;5034431;28;20037;-59
2021/05/26 14:09:57;;;;;;;1.52;0.57;;;;;;;;;;5034391;28;20025;-59
2021/05/26 14:12:24;;;;;;;2.08;0.68;;;;;;;;;;5035318;28;20029;-59
2021/05/26 14:14:53;;;;;;;1.40;0.70;;;;;;;;;;5065947;28;20057;-59
2021/05/26 14:17:19;;;;;;;2.15;1.05;;;;;;;;;;5066463;28;20041;-58
2021/05/26 14:19:45;;;;;;;2.15;0.85;;;;;;;;;;5034498;28;20029;-59
2021/05/26 14:22:13;;;;;;;1.95;0.88;;;;;;;;;;5033570;28;20108;-59
2021/05/26 14:24:42;;;;;;;1.23;0.68;;;;;;;;;;5034757;28;20395;-59
2021/05/26 14:27:10;;;;;;;1.45;0.77;;;;;;;;;;5032519;28;20054;-59
2021/05/26 14:29:36;;;;;;;1.27;0.70;;;;;;;;;;5034479;28;20032;-59
2021/05/26 14:32:02;;;;;;;0.85;0.38;;;;;;;;;;5032607;28;20029;-59
2021/05/26 14:34:29;;;;;;;2.22;0.88;;;;;;;;;;5033901;28;20025;-59
2021/05/26 14:36:55;;;;;;;0.93;0.40;;;;;;;;;;5033771;28;20033;-59
2021/05/26 14:39:33;;;;;;;3.25;1.20;;;;;;;;;;5034482;28;20025;-59
2021/05/26 14:41:59;;;;;;;1.75;0.73;;;;;;;;;;5034486;28;20037;-59
2021/05/26 14:44:25;;;;;;;1.63;0.85;;;;;;;;;;5034303;28;20021;-59
2021/05/26 14:46:51;;;;;;;2.25;1.02;;;;;;;;;;5045446;28;20045;-60
2021/05/26 14:49:17;;;;;;;1.70;0.75;;;;;;;;;;5069163;28;20122;-60
2021/05/26 14:51:43;;;;;;;1.45;0.60;;;;;;;;;;5036649;28;20398;-60
2021/05/26 14:54:09;;;;;;;2.22;0.80;;;;;;;;;;5053554;28;20029;-60
2021/05/26 14:56:36;;;;;;;1.65;0.90;;;;;;;;;;5053578;28;20036;-60
2021/05/26 14:59:02;;;;;;;1.08;0.60;;;;;;;;;;5035573;28;20025;-58
2021/05/26 15:01:29;;;;;;;1.92;0.63;;;;;;;;;;5035461;28;20039;-58
2021/05/26 15:03:56;;;;;;;1.45;0.88;;;;;;;;;;5035627;28;20039;-59